Time;durP1;ratioP1;P1;durP2;ratioP2;P2;SDS_P1;SDS_P2;PMS_P1;PMS_P2;Temp;Humidity;BMP_temperature;BMP_pressure;BME280_temperature;BME280_humidity;BME280_pressure;Samples;Min_cycle;Max_cycle;Signal;HPM_P1;HPM_P2
2021/03/27 00:02:30;;;;;;;9.80;7.07;;;;;;;8.07;100.00;96339.19;5029195;28;20081;-46
2021/03/27 00:05:05;;;;;;;10.73;7.78;;;;;;;8.13;100.00;96350.16;5001112;28;21340;-46
2021/03/27 00:07:36;;;;;;;9.38;6.88;;;;;;;7.92;100.00;96352.81;5032084;28;20088;-46
2021/03/27 00:10:18;;;;;;;10.30;6.43;;;;;;;7.93;100.00;96349.22;5026192;28;20130;-49
2021/03/27 00:12:47;;;;;;;9.45;6.68;;;;;;;7.92;100.00;96351.03;5025292;28;20077;-45
2021/03/27 00:15:20;;;;;;;9.40;6.50;;;;;;;7.87;100.00;96350.56;5042139;28;20072;-47
2021/03/27 00:17:52;;;;;;;10.73;6.78;;;;;;;8.06;100.00;96348.03;5015901;28;20072;-46
2021/03/27 00:20:24;;;;;;;13.52;7.13;;;;;;;8.32;100.00;96350.19;5027133;28;20467;-49
2021/03/27 00:22:55;;;;;;;9.65;6.40;;;;;;;8.28;100.00;96348.81;5000231;28;20067;-45
2021/03/27 00:25:26;;;;;;;8.98;6.53;;;;;;;8.12;100.00;96356.34;5029599;28;20308;-46
2021/03/27 00:28:00;;;;;;;9.15;6.30;;;;;;;8.35;100.00;96357.81;4996826;28;20056;-46
2021/03/27 00:30:33;;;;;;;7.90;6.53;;;;;;;8.39;100.00;96356.59;5017082;28;20065;-46
2021/03/27 00:33:02;;;;;;;10.55;6.53;;;;;;;8.28;100.00;96364.56;4999595;28;20076;-47
2021/03/27 00:35:33;;;;;;;9.13;6.32;;;;;;;8.47;100.00;96374.34;5022554;28;20103;-45
2021/03/27 00:38:03;;;;;;;9.40;7.00;;;;;;;8.20;100.00;96394.13;5001645;28;20250;-46
2021/03/27 00:40:35;;;;;;;13.50;7.22;;;;;;;8.44;100.00;96374.63;5025485;28;20069;-46
2021/03/27 00:43:06;;;;;;;9.82;6.80;;;;;;;8.09;100.00;96402.09;4999917;28;20057;-47
2021/03/27 00:45:39;;;;;;;10.63;7.03;;;;;;;8.38;100.00;96396.16;5033176;28;20467;-48
2021/03/27 00:48:12;;;;;;;12.48;7.85;;;;;;;8.22;100.00;96400.06;4998898;28;20073;-45
2021/03/27 00:50:43;;;;;;;11.68;7.47;;;;;;;8.41;100.00;96402.00;5035953;28;20084;-48
2021/03/27 00:53:18;;;;;;;11.98;7.40;;;;;;;8.77;100.00;96395.34;4993678;28;20088;-46
2021/03/27 00:55:49;;;;;;;11.93;7.35;;;;;;;8.98;100.00;96389.97;5037431;28;20524;-46
2021/03/27 00:58:24;;;;;;;11.38;7.07;;;;;;;9.06;100.00;96386.66;4996255;28;20468;-48
2021/03/27 01:00:53;;;;;;;10.52;6.95;;;;;;;9.22;100.00;96391.34;5016724;28;20069;-48
2021/03/27 01:03:23;;;;;;;12.52;7.65;;;;;;;9.21;100.00;96394.97;5004990;28;20072;-48
2021/03/27 01:05:51;;;;;;;;;;;;;;;9.38;100.00;96367.94;5027590;28;20486;-48
2021/03/27 01:08:19;;;;;;;10.07;7.43;;;;;;;10.11;100.00;96346.31;4998357;28;19970;-48
2021/03/27 01:10:50;;;;;;;11.60;7.57;;;;;;;9.40;100.00;96357.31;5019108;28;20068;-49
2021/03/27 01:13:18;;;;;;;;;;;;;;;9.72;100.00;96333.28;5000590;28;20062;-48
2021/03/27 01:15:48;;;;;;;10.93;7.82;;;;;;;9.75;100.00;96323.28;5026501;28;19965;-46
2021/03/27 01:18:18;;;;;;;12.23;7.68;;;;;;;9.80;100.00;96322.03;5009684;28;20061;-46
2021/03/27 01:20:50;;;;;;;11.18;7.07;;;;;;;9.82;100.00;96320.09;5027976;28;20084;-49
2021/03/27 01:23:18;;;;;;;9.80;7.13;;;;;;;9.25;100.00;96320.03;5004623;28;20566;-47
2021/03/27 01:25:46;;;;;;;10.38;7.00;;;;;;;8.96;100.00;96330.59;5034395;28;20072;-51
2021/03/27 01:28:21;;;;;;;10.93;7.72;;;;;;;9.22;100.00;96326.44;5004376;28;20078;-49
2021/03/27 01:31:00;;;;;;;13.60;7.10;;;;;;;9.17;100.00;96314.66;5043397;28;20068;-45
2021/03/27 01:33:30;;;;;;;9.80;6.85;;;;;;;9.15;100.00;96313.94;4987578;28;20070;-48
2021/03/27 01:36:07;;;;;;;11.27;6.70;;;;;;;9.34;100.00;96321.00;5028270;28;20073;-47
2021/03/27 01:38:40;;;;;;;10.10;7.35;;;;;;;9.18;100.00;96305.78;5001971;28;20092;-51
2021/03/27 01:41:16;;;;;;;8.70;6.65;;;;;;;8.96;100.00;96351.63;5016304;28;20085;-47
2021/03/27 01:43:52;;;;;;;13.95;7.13;;;;;;;9.17;100.00;96336.53;5034733;28;20519;-49
2021/03/27 01:46:46;;;;;;;11.43;7.20;;;;;;;9.31;100.00;96340.53;5021175;28;20527;-48
2021/03/27 01:49:27;;;;;;;8.57;6.28;;;;;;;9.44;100.00;96313.94;4993205;28;20046;-46
2021/03/27 01:52:05;;;;;;;11.27;6.85;;;;;;;9.41;100.00;96319.47;5034154;28;20060;-52
2021/03/27 01:54:34;;;;;;;8.35;6.32;;;;;;;8.99;100.00;96310.09;5002153;28;21535;-47
2021/03/27 01:57:09;;;;;;;7.95;6.20;;;;;;;9.09;100.00;96312.72;5038464;28;20061;-48
2021/03/27 01:59:41;;;;;;;8.55;5.97;;;;;;;9.39;100.00;96303.81;4993054;28;20178;-46
2021/03/27 02:02:12;;;;;;;7.65;6.22;;;;;;;9.57;100.00;96309.19;5028654;28;20079;-48
2021/03/27 02:04:42;;;;;;;8.35;6.00;;;;;;;9.68;100.00;96313.47;4993893;28;20076;-45
2021/03/27 02:07:18;;;;;;;7.10;5.68;;;;;;;9.65;100.00;96303.22;5025711;28;20100;-49
2021/03/27 02:09:51;;;;;;;10.18;6.13;;;;;;;9.48;100.00;96299.50;5006878;28;20067;-51
2021/03/27 02:12:28;;;;;;;8.05;5.80;;;;;;;9.57;100.00;96289.94;5017650;28;20065;-47
2021/03/27 02:14:58;;;;;;;9.18;5.97;;;;;;;9.66;100.00;96296.97;5025047;28;20077;-49
2021/03/27 02:17:46;;;;;;;8.90;6.10;;;;;;;9.32;100.00;96305.34;5019477;28;20523;-46
2021/03/27 02:20:32;;;;;;;8.15;5.97;;;;;;;9.26;100.00;96308.56;5008475;28;20352;-47
2021/03/27 02:23:10;;;;;;;10.02;5.90;;;;;;;9.23;100.00;96314.09;5036589;28;20350;-46
2021/03/27 02:26:09;;;;;;;8.90;5.93;;;;;;;9.43;100.00;96302.59;4998291;28;20065;-46
2021/03/27 02:28:56;;;;;;;8.20;6.00;;;;;;;9.59;100.00;96291.44;5022186;28;20144;-48
2021/03/27 02:31:31;;;;;;;8.25;5.90;;;;;;;9.62;100.00;96295.59;5003484;28;20073;-50
2021/03/27 02:34:02;;;;;;;8.52;5.68;;;;;;;9.79;100.00;96299.31;5019550;28;20083;-46
2021/03/27 02:36:37;;;;;;;7.85;5.85;;;;;;;9.60;100.00;96314.19;4993902;28;20065;-47
2021/03/27 02:39:15;;;;;;;12.70;5.30;;;;;;;9.58;100.00;96312.66;5022648;28;20069;-50
2021/03/27 02:42:05;;;;;;;8.45;5.45;;;;;;;9.50;100.00;96316.00;4992155;28;20084;-44
2021/03/27 02:44:38;;;;;;;6.53;5.20;;;;;;;9.57;100.00;96309.19;5023500;28;20136;-46
2021/03/27 02:47:29;;;;;;;6.30;4.82;;;;;;;9.17;100.00;96315.47;4996264;28;20471;-47
2021/03/27 02:50:06;;;;;;;7.25;5.50;;;;;;;9.34;100.00;96313.13;5028702;28;20475;-46
2021/03/27 02:52:37;;;;;;;8.15;5.85;;;;;;;9.42;100.00;96324.59;4993355;28;20069;-51
2021/03/27 02:55:11;;;;;;;6.85;5.22;;;;;;;9.10;100.00;96329.34;5029469;28;20077;-47
2021/03/27 02:57:42;;;;;;;6.57;5.40;;;;;;;9.14;100.00;96342.06;4995561;28;20066;-54
2021/03/27 03:00:13;;;;;;;;;;;;;;;8.81;100.00;96343.31;5039950;28;20062;-46
2021/03/27 03:02:47;;;;;;;7.55;5.25;;;;;;;8.61;100.00;96347.69;4997245;28;19953;-50
2021/03/27 03:05:21;;;;;;;7.75;5.43;;;;;;;8.35;100.00;96349.09;5022272;28;20473;-48
2021/03/27 03:07:53;;;;;;;9.57;5.80;;;;;;;8.42;100.00;96352.88;4996184;28;20071;-46
2021/03/27 03:10:25;;;;;;;7.82;5.57;;;;;;;8.43;100.00;96358.03;5014485;28;20072;-46
2021/03/27 03:13:01;;;;;;;7.05;5.60;;;;;;;8.26;100.00;96356.00;4999393;28;20060;-47
2021/03/27 03:15:34;;;;;;;10.90;6.13;;;;;;;8.60;100.00;96369.66;5025576;28;20045;-47
2021/03/27 03:18:11;;;;;;;10.88;6.03;;;;;;;8.41;100.00;96362.56;5007142;28;20066;-48
2021/03/27 03:20:46;;;;;;;8.35;5.85;;;;;;;8.60;100.00;96363.59;5021432;28;20084;-49
2021/03/27 03:23:24;;;;;;;8.50;5.93;;;;;;;8.69;100.00;96366.25;4989024;28;20069;-51
2021/03/27 03:26:04;;;;;;;9.88;6.20;;;;;;;8.72;100.00;96365.97;5027516;28;20052;-47
2021/03/27 03:28:41;;;;;;;10.43;6.38;;;;;;;8.73;100.00;96370.25;4997659;28;20061;-47
2021/03/27 03:31:20;;;;;;;9.48;6.07;;;;;;;8.77;100.00;96366.41;5026124;28;20064;-46
2021/03/27 03:34:16;;;;;;;8.90;5.82;;;;;;;8.67;100.00;96360.31;4976816;28;20650;-47
2021/03/27 03:36:53;;;;;;;9.02;6.03;;;;;;;8.66;100.00;96369.13;5021224;28;20067;-48
2021/03/27 03:39:32;;;;;;;7.13;5.93;;;;;;;8.65;100.00;96377.16;5001150;28;20071;-49
2021/03/27 03:42:10;;;;;;;11.20;6.40;;;;;;;8.54;100.00;96388.63;5024619;28;20068;-47
2021/03/27 03:44:50;;;;;;;10.52;6.30;;;;;;;8.42;100.00;96387.88;4991583;28;20496;-46
2021/03/27 03:47:20;;;;;;;10.52;5.90;;;;;;;8.39;100.00;96388.13;5029646;28;20530;-43
2021/03/27 03:50:29;;;;;;;11.10;6.30;;;;;;;8.49;100.00;96386.38;4994697;28;20392;-48
2021/03/27 03:53:26;;;;;;;7.78;6.05;;;;;;;8.43;100.00;96389.56;5015322;28;20518;-46
2021/03/27 03:56:07;;;;;;;9.25;6.05;;;;;;;8.43;100.00;96384.31;4975762;28;20053;-47
2021/03/27 03:59:13;;;;;;;9.35;6.28;;;;;;;8.49;100.00;96390.81;5021813;28;20064;-46
2021/03/27 04:01:46;;;;;;;12.35;6.53;;;;;;;8.65;100.00;96392.94;4986397;28;20479;-46
2021/03/27 04:04:17;;;;;;;9.30;6.70;;;;;;;8.75;100.00;96396.44;4992401;28;20073;-47
2021/03/27 04:06:47;;;;;;;11.23;6.72;;;;;;;8.54;100.00;96386.81;5001562;28;20146;-45
2021/03/27 04:09:20;;;;;;;8.65;6.78;;;;;;;8.52;100.00;96387.91;5025127;28;20063;-46
2021/03/27 04:11:55;;;;;;;8.25;5.95;;;;;;;8.64;100.00;96404.44;4999996;28;20563;-44
2021/03/27 04:14:35;;;;;;;8.05;6.32;;;;;;;8.54;100.00;96399.97;5039179;28;20593;-46
2021/03/27 04:17:07;;;;;;;9.55;6.05;;;;;;;8.51;100.00;96412.53;5014872;28;21724;-47
2021/03/27 04:19:39;;;;;;;8.35;6.10;;;;;;;8.36;100.00;96405.94;5028857;28;20069;-47
2021/03/27 04:22:12;;;;;;;8.50;6.00;;;;;;;8.42;100.00;96419.41;4992954;28;20081;-48
2021/03/27 04:24:46;;;;;;;12.77;6.72;;;;;;;8.32;100.00;96426.38;5023344;28;20073;-48
2021/03/27 04:27:23;;;;;;;10.23;6.25;;;;;;;8.42;100.00;96422.03;5001242;28;20057;-47
2021/03/27 04:30:00;;;;;;;11.23;6.65;;;;;;;8.54;100.00;96428.03;5020281;28;20126;-46
2021/03/27 04:32:43;;;;;;;13.88;6.40;;;;;;;8.44;100.00;96430.63;5011229;28;20080;-46
2021/03/27 04:35:34;;;;;;;10.45;6.55;;;;;;;8.64;100.00;96428.09;5021595;28;20061;-48
2021/03/27 04:38:11;;;;;;;9.20;6.18;;;;;;;8.86;100.00;96434.91;5019744;28;20314;-49
2021/03/27 04:40:43;;;;;;;9.88;6.15;;;;;;;8.85;100.00;96439.34;4978463;28;20069;-49
2021/03/27 04:43:16;;;;;;;8.52;6.22;;;;;;;8.99;100.00;96446.03;5020848;28;20068;-48
2021/03/27 04:45:46;;;;;;;10.40;6.40;;;;;;;8.92;100.00;96453.63;5022381;28;20058;-48
2021/03/27 04:48:21;;;;;;;8.88;6.53;;;;;;;9.05;100.00;96448.13;5002014;28;20099;-46
2021/03/27 04:51:22;;;;;;;11.60;6.45;;;;;;;8.98;100.00;96455.72;5022058;28;20061;-46
2021/03/27 04:53:57;;;;;;;8.60;6.00;;;;;;;9.02;100.00;96457.13;5033488;28;20485;-49
2021/03/27 04:56:31;;;;;;;9.82;6.43;;;;;;;9.07;100.00;96464.59;4981785;28;20140;-50
2021/03/27 04:59:04;;;;;;;8.50;6.07;;;;;;;9.09;100.00;96467.94;5036358;28;20067;-47
2021/03/27 05:01:44;;;;;;;8.32;5.93;;;;;;;9.10;100.00;96477.47;4994994;28;20064;-46
2021/03/27 05:04:14;;;;;;;;;;;;;;;9.02;100.00;96478.16;5021810;28;20061;-47
2021/03/27 05:06:43;;;;;;;9.45;6.25;;;;;;;9.12;100.00;96482.59;5009181;28;20378;-48
2021/03/27 05:09:27;;;;;;;9.48;6.30;;;;;;;9.01;100.00;96483.53;5018042;28;20072;-46
2021/03/27 05:11:57;;;;;;;8.10;5.95;;;;;;;9.13;100.00;96505.31;4987753;28;20057;-44
2021/03/27 05:14:45;;;;;;;9.57;7.10;;;;;;;9.24;100.00;96513.09;5022141;28;20447;-46
2021/03/27 05:17:18;;;;;;;8.43;5.90;;;;;;;9.08;100.00;96516.22;5002988;28;20197;-47
2021/03/27 05:19:51;;;;;;;9.15;6.32;;;;;;;9.25;100.00;96520.84;5024640;28;20076;-46
2021/03/27 05:22:31;;;;;;;10.20;6.32;;;;;;;9.25;100.00;96520.00;4984073;28;20111;-46
2021/03/27 05:25:09;;;;;;;8.02;6.40;;;;;;;9.25;100.00;96518.22;5017354;28;20499;-45
2021/03/27 05:27:43;;;;;;;7.90;5.07;;;;;;;9.19;100.00;96510.06;4993945;28;20068;-47
2021/03/27 05:30:22;;;;;;;7.43;5.88;;;;;;;9.37;100.00;96518.13;5035185;28;20057;-47
2021/03/27 05:32:58;;;;;;;9.95;6.85;;;;;;;9.42;100.00;96515.88;4993260;28;20061;-47
2021/03/27 05:35:30;;;;;;;9.57;6.10;;;;;;;9.55;100.00;96518.28;5026013;28;20511;-48
2021/03/27 05:38:10;;;;;;;8.73;6.22;;;;;;;9.54;100.00;96520.09;4992688;28;20297;-47
2021/03/27 05:41:00;;;;;;;9.07;6.10;;;;;;;9.70;100.00;96525.66;5023549;28;20060;-50
2021/03/27 05:43:52;;;;;;;7.55;5.65;;;;;;;9.65;100.00;96538.38;5010348;28;20920;-47
2021/03/27 05:46:53;;;;;;;10.40;6.65;;;;;;;9.82;100.00;96541.31;4990042;28;20083;-48
2021/03/27 05:49:43;;;;;;;9.32;6.03;;;;;;;9.82;100.00;96543.94;4997098;28;20065;-50
2021/03/27 05:52:23;;;;;;;7.78;5.88;;;;;;;9.77;100.00;96546.97;5044677;28;20079;-49
2021/03/27 05:55:14;;;;;;;7.38;5.32;;;;;;;9.83;100.00;96556.97;5004821;28;20122;-50
2021/03/27 05:58:16;;;;;;;8.45;6.60;;;;;;;9.85;100.00;96554.22;5012326;28;20490;-52
2021/03/27 06:00:55;;;;;;;12.00;6.53;;;;;;;9.93;100.00;96557.81;5009690;28;20073;-51
2021/03/27 06:03:47;;;;;;;9.63;6.50;;;;;;;10.02;100.00;96557.97;5028958;28;20075;-48
2021/03/27 06:06:48;;;;;;;9.70;7.00;;;;;;;9.93;100.00;96562.25;5016005;28;20188;-49
2021/03/27 06:09:38;;;;;;;8.70;6.68;;;;;;;10.06;100.00;96568.06;4998154;28;20075;-49
2021/03/27 06:12:16;;;;;;;8.77;5.68;;;;;;;9.96;100.00;96570.69;5026241;28;20618;-51
2021/03/27 06:15:12;;;;;;;10.57;6.60;;;;;;;10.18;100.00;96569.56;4997089;28;20129;-54
2021/03/27 06:17:51;;;;;;;8.15;6.15;;;;;;;10.26;100.00;96578.66;5026181;28;20121;-47
2021/03/27 06:20:46;;;;;;;9.55;6.10;;;;;;;10.37;100.00;96581.97;5003952;28;20057;-53
2021/03/27 06:24:04;;;;;;;7.05;5.00;;;;;;;10.53;100.00;96591.94;5048317;28;20500;-48
2021/03/27 06:27:17;;;;;;;8.60;5.85;;;;;;;10.68;100.00;96582.59;5002800;28;20265;-49
2021/03/27 06:30:18;;;;;;;10.88;5.68;;;;;;;10.75;100.00;96595.22;5024526;28;20076;-47
2021/03/27 06:33:18;;;;;;;7.97;4.85;;;;;;;10.86;100.00;96602.97;5041115;28;20063;-48
2021/03/27 06:36:20;;;;;;;5.93;4.88;;;;;;;10.30;100.00;96595.84;5000850;28;20080;-49
2021/03/27 06:39:45;;;;;;;7.20;5.05;;;;;;;10.54;100.00;96601.50;5025915;28;20063;-50
2021/03/27 06:42:35;;;;;;;5.43;3.75;;;;;;;10.34;100.00;96591.94;4950988;28;20072;-50
2021/03/27 06:45:30;;;;;;;7.15;4.07;;;;;;;10.33;100.00;96609.56;5037807;28;20069;-49
2021/03/27 06:48:37;;;;;;;5.47;3.65;;;;;;;10.33;100.00;96614.84;5024744;28;20083;-50
2021/03/27 06:51:34;;;;;;;5.80;4.07;;;;;;;10.39;100.00;96610.81;4996151;28;20064;-49
2021/03/27 06:54:23;;;;;;;6.60;3.50;;;;;;;10.49;100.00;96626.63;5039098;28;20487;-47
2021/03/27 06:57:01;;;;;;;6.88;3.30;;;;;;;10.44;100.00;96612.06;4996890;28;21393;-52
2021/03/27 07:00:01;;;;;;;3.88;3.22;;;;;;;10.55;100.00;96613.72;5038083;28;20076;-47
2021/03/27 07:03:15;;;;;;;3.53;2.65;;;;;;;10.50;100.00;96628.31;5006989;28;20057;-48
2021/03/27 07:06:07;;;;;;;2.88;2.40;;;;;;;10.75;100.00;96632.16;4989794;28;21453;-51
2021/03/27 07:09:02;;;;;;;4.65;2.78;;;;;;;10.71;100.00;96644.78;4988328;28;20081;-49
2021/03/27 07:11:58;;;;;;;5.20;3.00;;;;;;;11.06;100.00;96641.53;5010970;28;20071;-50
2021/03/27 07:14:57;;;;;;;4.65;2.47;;;;;;;10.87;100.00;96645.06;5023665;28;20092;-51
2021/03/27 07:17:59;;;;;;;4.60;3.00;;;;;;;10.87;100.00;96657.38;4997691;28;20563;-52
2021/03/27 07:20:50;;;;;;;5.25;2.90;;;;;;;10.67;100.00;96677.72;4920118;29;21434;-49
2021/03/27 07:23:43;;;;;;;;;;;;;;;10.50;100.00;96665.22;4976986;28;20075;-54
2021/03/27 07:26:47;;;;;;;2.95;2.20;;;;;;;10.31;100.00;96739.84;5023926;28;20513;-47
2021/03/27 07:29:42;;;;;;;3.40;1.73;;;;;;;8.15;100.00;96769.28;4995624;28;20076;-48
2021/03/27 07:32:20;;;;;;;1.63;1.52;;;;;;;7.67;100.00;96784.47;5021809;28;20238;-47
2021/03/27 07:35:04;;;;;;;2.13;1.90;;;;;;;7.57;100.00;96807.97;5027849;28;20072;-47
2021/03/27 07:37:57;;;;;;;1.77;1.67;;;;;;;7.32;100.00;96809.84;5007821;28;20065;-51
2021/03/27 07:40:41;;;;;;;1.90;1.80;;;;;;;6.87;100.00;96812.31;5023072;28;20069;-48
2021/03/27 07:43:27;;;;;;;1.80;1.70;;;;;;;6.91;100.00;96836.53;4998515;28;20065;-47
2021/03/27 07:46:24;;;;;;;3.75;1.85;;;;;;;6.75;100.00;96833.38;5025386;28;20522;-47
2021/03/27 07:49:12;;;;;;;2.00;1.90;;;;;;;6.73;100.00;96843.13;5010152;28;20073;-53
2021/03/27 07:52:03;;;;;;;2.38;2.05;;;;;;;6.84;100.00;96851.84;5019394;28;20076;-48
2021/03/27 07:54:57;;;;;;;2.17;2.05;;;;;;;6.90;100.00;96855.84;4997236;28;20069;-46
2021/03/27 07:57:57;;;;;;;2.10;1.90;;;;;;;6.87;100.00;96861.28;5023293;28;20071;-50
2021/03/27 08:00:37;;;;;;;1.85;1.60;;;;;;;6.73;100.00;96888.50;4906618;29;20138;-47
2021/03/27 08:03:27;;;;;;;1.83;1.73;;;;;;;6.74;100.00;96902.44;5030011;28;20071;-47
2021/03/27 08:06:04;;;;;;;2.45;2.22;;;;;;;6.68;100.00;96879.31;5020177;28;20084;-52
2021/03/27 08:09:01;;;;;;;1.92;1.73;;;;;;;6.63;100.00;96892.72;5030919;28;20487;-52
2021/03/27 08:11:48;;;;;;;2.08;1.98;;;;;;;6.86;100.00;96901.56;5029582;28;20485;-51
2021/03/27 08:14:33;;;;;;;1.70;1.60;;;;;;;6.87;100.00;96908.47;4996276;28;20151;-45
2021/03/27 08:17:19;;;;;;;1.73;1.63;;;;;;;7.11;100.00;96898.00;5024433;28;20494;-50
2021/03/27 08:20:00;;;;;;;1.92;1.83;;;;;;;7.10;100.00;96901.56;5003615;28;20068;-48
2021/03/27 08:23:04;;;;;;;2.03;1.80;;;;;;;7.26;100.00;96909.13;5027923;28;20104;-46
2021/03/27 08:25:37;;;;;;;4.78;1.70;;;;;;;7.22;100.00;96912.94;5004350;28;20079;-49
2021/03/27 08:28:31;;;;;;;2.17;1.88;;;;;;;7.36;100.00;96913.63;5021908;28;20469;-46
2021/03/27 08:31:32;;;;;;;1.98;1.88;;;;;;;7.55;100.00;96928.81;4993746;28;20115;-47
2021/03/27 08:34:24;;;;;;;2.42;1.88;;;;;;;7.72;100.00;96932.81;5024772;28;20072;-48
2021/03/27 08:37:14;;;;;;;2.35;2.10;;;;;;;7.86;100.00;96926.53;4995623;28;20076;-46
2021/03/27 08:39:58;;;;;;;3.20;2.17;;;;;;;8.30;100.00;96941.50;5029385;28;20065;-47
2021/03/27 08:43:13;;;;;;;2.45;1.67;;;;;;;8.93;100.00;96935.75;5014989;28;20057;-47
2021/03/27 08:46:15;;;;;;;1.88;1.77;;;;;;;8.80;100.00;96938.53;4958558;28;20531;-48
2021/03/27 08:48:52;;;;;;;;;;;;;;;8.66;100.00;96941.41;5027865;28;20080;-50
2021/03/27 08:51:22;;;;;;;2.20;1.50;;;;;;;9.02;100.00;96950.81;5003272;28;19959;-50
2021/03/27 08:54:37;;;;;;;2.35;1.48;;;;;;;9.18;100.00;96959.13;5026949;28;20156;-47
2021/03/27 08:57:47;;;;;;;2.47;1.58;;;;;;;9.06;100.00;96949.59;4969497;28;20127;-47
2021/03/27 09:00:52;;;;;;;2.03;1.57;;;;;;;9.73;100.00;96969.59;5031153;28;20061;-52
2021/03/27 09:03:52;;;;;;;2.38;1.45;;;;;;;9.63;100.00;96960.78;5021545;28;20080;-51
2021/03/27 09:06:37;;;;;;;2.88;1.40;;;;;;;9.10;100.00;96972.06;4989232;28;20538;-47
2021/03/27 09:09:27;;;;;;;1.50;1.40;;;;;;;9.62;100.00;96962.56;5013422;28;20092;-49
2021/03/27 09:12:35;;;;;;;2.17;1.52;;;;;;;9.17;100.00;96967.16;4984988;28;20457;-48
2021/03/27 09:15:19;;;;;;;2.17;1.45;;;;;;;9.51;100.00;96973.16;4959918;28;20078;-47
2021/03/27 09:18:23;;;;;;;1.60;1.50;;;;;;;9.33;100.00;96975.50;4947195;28;20086;-47
2021/03/27 09:21:06;;;;;;;1.90;1.48;;;;;;;9.77;100.00;96957.81;4980906;28;20079;-50
2021/03/27 09:23:41;;;;;;;1.50;1.40;;;;;;;9.84;100.00;96956.38;4991126;28;20484;-50
2021/03/27 09:26:22;;;;;;;1.88;1.67;;;;;;;9.94;100.00;96977.50;5035568;28;20092;-53
2021/03/27 09:29:01;;;;;;;2.08;1.65;;;;;;;10.04;100.00;96985.47;4993740;28;20084;-49
2021/03/27 09:32:02;;;;;;;1.77;1.42;;;;;;;10.34;100.00;96987.38;5024965;28;20073;-53
2021/03/27 09:35:02;;;;;;;2.40;1.40;;;;;;;10.51;100.00;96968.31;5024639;28;20084;-53
2021/03/27 09:37:40;;;;;;;1.65;1.40;;;;;;;10.43;100.00;96986.59;5000316;28;20068;-49
2021/03/27 09:40:18;;;;;;;1.30;1.20;;;;;;;10.16;100.00;96980.03;5021684;28;20437;-50
2021/03/27 09:43:39;;;;;;;1.40;1.30;;;;;;;10.07;100.00;96986.06;4991497;28;20129;-50
2021/03/27 09:46:09;;;;;;;2.75;1.88;;;;;;;9.81;100.00;96982.13;4988073;28;20073;-50
2021/03/27 09:48:47;;;;;;;1.42;1.27;;;;;;;9.93;100.00;96996.91;4994387;28;20065;-47
2021/03/27 09:51:21;;;;;;;1.15;1.15;;;;;;;10.11;100.00;96978.72;5024522;28;20069;-51
2021/03/27 09:53:56;;;;;;;1.45;1.30;;;;;;;10.58;100.00;96977.38;5003186;28;20060;-53
2021/03/27 09:56:32;;;;;;;3.33;1.50;;;;;;;10.58;100.00;96985.28;5026627;28;20107;-47
2021/03/27 09:59:32;;;;;;;1.40;1.30;;;;;;;10.61;100.00;96984.19;4986622;28;20328;-52
2021/03/27 10:02:10;;;;;;;1.77;1.30;;;;;;;10.73;100.00;96993.66;5003939;28;20069;-48
2021/03/27 10:04:51;;;;;;;1.67;1.40;;;;;;;11.23;100.00;96985.78;4997364;28;20567;-47
2021/03/27 10:07:26;;;;;;;1.20;1.10;;;;;;;10.86;100.00;96998.72;5042508;28;20068;-50
2021/03/27 10:10:17;;;;;;;3.08;1.40;;;;;;;11.25;100.00;96991.78;4985313;28;20060;-51
2021/03/27 10:12:58;;;;;;;1.42;1.30;;;;;;;10.73;100.00;96996.28;5030815;28;20085;-55
2021/03/27 10:15:33;;;;;;;1.50;1.40;;;;;;;11.25;100.00;97001.47;5003812;28;20068;-55
2021/03/27 10:18:06;;;;;;;4.80;1.60;;;;;;;11.29;100.00;97002.91;5017220;28;20111;-48
2021/03/27 10:20:40;;;;;;;1.15;1.15;;;;;;;11.06;100.00;97003.09;5005177;28;20084;-52
2021/03/27 10:23:35;;;;;;;1.48;1.38;;;;;;;10.82;100.00;97003.44;5025396;28;20069;-50
2021/03/27 10:26:26;;;;;;;1.52;1.42;;;;;;;10.75;100.00;97004.94;4993190;28;20510;-54
2021/03/27 10:28:57;;;;;;;1.48;1.38;;;;;;;11.20;100.00;97007.16;5037790;28;20065;-48
2021/03/27 10:31:28;;;;;;;1.92;1.70;;;;;;;11.07;100.00;97012.69;4991671;28;20065;-50
2021/03/27 10:34:19;;;;;;;1.45;1.35;;;;;;;11.11;100.00;97003.53;5039687;28;20071;-48
2021/03/27 10:36:48;;;;;;;;;;;;;;;10.82;100.00;97002.59;5024742;28;20486;-51
2021/03/27 10:39:27;;;;;;;1.60;1.50;;;;;;;10.90;100.00;97002.75;5026974;28;20364;-51
2021/03/27 10:42:27;;;;;;;2.97;1.60;;;;;;;11.14;100.00;97019.09;5019974;28;20110;-49
2021/03/27 10:45:10;;;;;;;1.77;1.48;;;;;;;11.26;92.13;97005.81;4967404;28;20093;-47
2021/03/27 10:47:42;;;;;;;1.60;1.50;;;;;;;10.68;91.13;97007.25;5039359;28;20100;-55
2021/03/27 10:50:15;;;;;;;2.35;1.30;;;;;;;11.14;88.01;97012.97;4996969;28;20158;-48
2021/03/27 10:53:11;;;;;;;1.48;1.38;;;;;;;11.20;87.33;97020.38;5033074;28;20061;-48
2021/03/27 10:56:06;;;;;;;1.80;1.70;;;;;;;11.53;100.00;97023.66;4995189;28;20072;-49
2021/03/27 10:58:48;;;;;;;2.05;1.30;;;;;;;10.93;90.09;97021.78;5025947;28;20095;-45
2021/03/27 11:01:39;;;;;;;3.42;1.50;;;;;;;11.30;85.78;97023.03;5003961;28;20065;-47
2021/03/27 11:04:44;;;;;;;1.17;1.08;;;;;;;11.39;79.77;97033.63;5031982;28;20072;-50
2021/03/27 11:08:00;;;;;;;1.55;1.23;;;;;;;10.63;71.31;97037.63;4995169;28;20076;-49
2021/03/27 11:11:18;;;;;;;1.58;1.10;;;;;;;10.94;70.42;97017.34;5026193;28;20134;-52
2021/03/27 11:14:06;;;;;;;1.20;1.10;;;;;;;10.42;64.42;97027.91;5039782;28;20072;-49
2021/03/27 11:16:56;;;;;;;1.10;1.10;;;;;;;11.06;73.16;97029.50;5002794;28;20132;-53
2021/03/27 11:19:59;;;;;;;1.48;1.30;;;;;;;10.98;66.38;97036.38;5034541;28;20088;-48
2021/03/27 11:22:46;;;;;;;1.30;1.15;;;;;;;10.59;66.84;97036.22;5000692;28;20157;-49
2021/03/27 11:25:50;;;;;;;2.22;1.50;;;;;;;10.83;61.61;97043.84;5024209;28;20099;-49
2021/03/27 11:28:22;;;;;;;1.50;1.20;;;;;;;11.09;62.17;97044.22;4993317;28;20057;-51
2021/03/27 11:31:11;;;;;;;1.77;1.17;;;;;;;10.34;62.06;97032.19;5039232;28;20053;-49
2021/03/27 11:33:42;;;;;;;2.05;1.10;;;;;;;10.89;72.67;97044.16;4991033;28;20069;-53
2021/03/27 11:36:14;;;;;;;1.40;1.30;;;;;;;10.52;63.84;97040.34;5020799;28;20429;-53
2021/03/27 11:38:45;;;;;;;1.20;1.10;;;;;;;10.62;64.41;97054.41;4998881;28;20081;-49
2021/03/27 11:41:20;;;;;;;2.25;1.52;;;;;;;10.58;66.09;97043.28;5039903;28;20081;-49
2021/03/27 11:43:58;;;;;;;2.08;1.40;;;;;;;10.71;70.23;97043.09;5005525;28;20087;-48
2021/03/27 11:46:30;;;;;;;1.42;1.30;;;;;;;10.68;67.82;97062.66;5029046;28;20065;-49
2021/03/27 11:49:09;;;;;;;2.45;1.67;;;;;;;11.10;62.94;97057.28;5010135;28;20064;-48
2021/03/27 11:51:39;;;;;;;1.50;1.40;;;;;;;10.98;64.56;97062.78;5024013;28;20063;-46
2021/03/27 11:54:17;;;;;;;2.55;1.58;;;;;;;11.26;65.49;97059.44;5000357;28;20085;-48
2021/03/27 11:56:47;;;;;;;1.70;1.60;;;;;;;10.66;69.85;97059.28;5028132;28;20088;-50
2021/03/27 12:00:47;;;;;;;2.83;1.23;;;;;;;10.60;62.75;97056.38;4993978;28;20550;-50
2021/03/27 12:02:46;;;;;;;1.83;1.50;;;;;;;11.07;66.15;97047.00;5033686;28;20132;-50
2021/03/27 12:05:17;;;;;;;2.90;1.60;;;;;;;11.33;70.76;97052.66;5018545;28;20084;-51
2021/03/27 12:07:53;;;;;;;1.52;1.20;;;;;;;10.44;66.02;97046.25;5037700;28;20433;-50
2021/03/27 12:10:30;;;;;;;2.08;1.50;;;;;;;10.16;74.69;97045.91;5013096;28;20075;-47
2021/03/27 12:13:03;;;;;;;2.88;1.67;;;;;;;9.83;70.35;97052.16;5016850;28;20439;-53
2021/03/27 12:15:33;;;;;;;1.80;1.48;;;;;;;9.97;73.00;97062.38;5009122;28;20065;-50
2021/03/27 12:18:10;;;;;;;1.85;1.67;;;;;;;10.14;75.44;97054.91;5022252;28;20076;-45
2021/03/27 12:20:40;;;;;;;5.05;1.77;;;;;;;10.13;73.82;97055.88;5007194;28;20504;-54
2021/03/27 12:23:17;;;;;;;2.22;1.55;;;;;;;9.89;75.83;97054.28;5026970;28;20067;-49
2021/03/27 12:25:54;;;;;;;2.30;1.75;;;;;;;10.05;74.60;97059.16;4989695;28;21203;-51
2021/03/27 12:28:38;;;;;;;2.72;1.85;;;;;;;10.18;74.34;97045.75;5021117;28;20092;-52
2021/03/27 12:31:20;;;;;;;2.80;1.40;;;;;;;9.69;72.85;97063.81;4987224;28;20061;-50
2021/03/27 12:33:57;;;;;;;1.65;1.52;;;;;;;9.80;71.34;97035.75;5017699;28;20455;-49
2021/03/27 12:36:28;;;;;;;2.63;1.60;;;;;;;10.23;76.29;97056.78;5014705;28;20061;-50
2021/03/27 12:39:29;;;;;;;2.05;1.60;;;;;;;10.40;73.48;97047.50;5018632;28;20064;-53
2021/03/27 12:42:02;;;;;;;2.05;1.42;;;;;;;10.13;75.98;97050.59;5036621;28;20094;-52
2021/03/27 12:44:32;;;;;;;2.85;1.60;;;;;;;10.35;78.70;97057.56;4998150;28;20542;-52